Time,TemperatureF,DewpointF,PressureIn,WindDirection,WindDirectionDegrees,WindSpeedMPH,WindSpeedGustMPH,Humidity,HourlyPrecipIn,Conditions,Clouds,dailyrainin,SolarRadiationWatts/m^2,SoftwareType,DateUTC
2013-05-20 00:01:00,67.0,21.0,24.49,West,270,33.0,38.0,17,-99.99,,,-99.99,0.000000,,2013-05-20 06:01:00,
2013-05-20 00:11:00,67.0,22.0,24.45,West,268,33.0,38.0,17,-99.99,,,-99.99,0.000000,,2013-05-20 06:11:00,
2013-05-20 00:21:00,67.0,22.0,24.45,West,268,33.0,38.0,17,-99.99,,,-99.99,0.000000,,2013-05-20 06:21:00,
2013-05-20 00:32:00,65.0,22.0,24.41,West,270,31.0,37.0,18,-99.99,,,-99.99,0.000000,,2013-05-20 06:32:00,
2013-05-20 00:41:00,65.0,22.0,24.45,West,269,32.0,37.0,19,-99.99,,,-99.99,0.000000,,2013-05-20 06:41:00,
2013-05-20 00:52:00,65.0,22.0,24.45,West,269,32.0,37.0,19,-99.99,,,-99.99,0.000000,,2013-05-20 06:52:00,
2013-05-20 01:02:00,66.0,22.0,24.45,West,267,32.0,38.0,19,-99.99,,,-99.99,0.000000,,2013-05-20 07:02:00,
2013-05-20 01:12:00,65.0,22.0,24.45,West,269,34.0,40.0,18,-99.99,,,-99.99,0.000000,,2013-05-20 07:12:00,
2013-05-20 01:21:00,65.0,22.0,24.45,West,269,34.0,40.0,18,-99.99,,,-99.99,0.000000,,2013-05-20 07:21:00,
2013-05-20 01:32:00,65.0,21.0,24.44,West,269,35.0,41.0,18,-99.99,,,-99.99,0.000000,,2013-05-20 07:32:00,
2013-05-20 01:42:00,65.0,21.0,24.43,West,268,36.0,46.0,18,-99.99,,,-99.99,0.000000,,2013-05-20 07:42:00,
2013-05-20 01:52:00,65.0,21.0,24.43,West,268,36.0,46.0,18,-99.99,,,-99.99,0.000000,,2013-05-20 07:52:00,
2013-05-20 02:01:00,65.0,21.0,24.42,West,267,35.0,41.0,18,-99.99,,,-99.99,0.000000,,2013-05-20 08:01:00,
2013-05-20 02:11:00,65.0,20.0,24.33,West,261,35.0,43.0,18,-99.99,,,-99.99,0.000000,,2013-05-20 08:11:00,
2013-05-20 02:21:00,65.0,20.0,24.33,West,261,35.0,43.0,18,-99.99,,,-99.99,0.000000,,2013-05-20 08:21:00,
2013-05-20 02:32:00,65.0,20.0,-100.00,West,261,35.0,43.0,18,-99.99,,,-99.99,0.000000,,2013-05-20 08:32:00,
2013-05-20 02:41:00,65.0,20.0,-100.00,West,261,35.0,43.0,18,-99.99,,,-99.99,0.000000,,2013-05-20 08:41:00,
2013-05-20 08:11:00,60.0,24.0,24.12,West,280,12.0,15.0,25,-99.99,,,-99.99,294.269989,,2013-05-20 14:11:00,
2013-05-20 08:22:00,60.0,24.0,24.12,West,280,12.0,15.0,25,-99.99,,,-99.99,294.269989,,2013-05-20 14:22:00,
2013-05-20 08:32:00,60.0,25.0,24.08,WNW,283,14.0,16.0,25,-99.99,,,-99.99,350.059998,,2013-05-20 14:32:00,
2013-05-20 08:42:00,62.0,25.0,24.12,West,273,15.0,18.0,23,-99.99,,,-99.99,406.549988,,2013-05-20 14:42:00,
2013-05-20 08:52:00,62.0,25.0,24.12,West,273,15.0,18.0,23,-99.99,,,-99.99,406.549988,,2013-05-20 14:52:00,
2013-05-20 09:01:00,62.0,25.0,24.12,West,273,15.0,18.0,23,-99.99,,,-99.99,406.549988,,2013-05-20 15:01:00,
2013-05-20 09:11:00,63.0,25.0,24.16,West,273,17.0,22.0,23,-99.99,,,-99.99,516.030029,,2013-05-20 15:11:00,
2013-05-20 09:21:00,63.0,25.0,24.16,West,273,17.0,22.0,23,-99.99,,,-99.99,516.030029,,2013-05-20 15:21:00,
2013-05-20 09:33:00,64.0,25.0,24.15,WNW,283,18.0,23.0,23,-99.99,,,-99.99,569.719971,,2013-05-20 15:33:00,
2013-05-20 09:42:00,64.0,26.0,24.07,West,279,18.0,24.0,23,-99.99,,,-99.99,621.320007,,2013-05-20 15:42:00,
2013-05-20 09:53:00,64.0,26.0,24.07,West,279,18.0,24.0,23,-99.99,,,-99.99,621.320007,,2013-05-20 15:53:00,
2013-05-20 10:03:00,65.0,26.0,24.12,West,278,19.0,27.0,22,-99.99,,,-99.99,672.229980,,2013-05-20 16:03:00,
2013-05-20 10:12:00,65.0,26.0,24.09,West,276,20.0,26.0,22,-99.99,,,-99.99,721.039978,,2013-05-20 16:12:00,
2013-05-20 10:22:00,65.0,26.0,24.09,West,276,20.0,26.0,22,-99.99,,,-99.99,721.039978,,2013-05-20 16:22:00,
2013-05-20 10:33:00,66.0,26.0,24.12,West,269,20.0,26.0,21,-99.99,,,-99.99,764.969971,,2013-05-20 16:33:00,
2013-05-20 10:42:00,67.0,26.0,24.16,West,274,21.0,28.0,21,-99.99,,,-99.99,807.510010,,2013-05-20 16:42:00,
2013-05-20 10:53:00,67.0,26.0,24.16,West,274,21.0,28.0,21,-99.99,,,-99.99,807.510010,,2013-05-20 16:53:00,
2013-05-20 11:02:00,68.0,25.0,24.37,West,273,20.0,30.0,19,-99.99,,,-99.99,847.260010,,2013-05-20 17:02:00,
2013-05-20 11:12:00,68.0,24.0,24.43,West,275,23.0,30.0,19,-99.99,,,-99.99,882.820007,,2013-05-20 17:12:00,
2013-05-20 11:22:00,68.0,24.0,24.43,West,275,23.0,30.0,19,-99.99,,,-99.99,882.820007,,2013-05-20 17:22:00,
2013-05-20 11:33:00,68.0,24.0,24.46,West,272,23.0,36.0,18,-99.99,,,-99.99,911.409973,,2013-05-20 17:33:00,
2013-05-20 11:45:00,69.0,24.0,24.45,West,271,24.0,32.0,18,-99.99,,,-99.99,940.700012,,2013-05-20 17:45:00,
2013-05-20 11:53:00,69.0,24.0,24.45,West,271,24.0,32.0,18,-99.99,,,-99.99,940.700012,,2013-05-20 17:53:00,
2013-05-20 12:02:00,69.0,23.0,24.37,West,261,30.0,40.0,17,-99.99,,,-99.99,966.500000,,2013-05-20 18:02:00,
2013-05-20 12:12:00,70.0,21.0,24.37,WSW,256,33.0,43.0,15,-99.99,,,-99.99,988.820007,,2013-05-20 18:12:00,
2013-05-20 12:23:00,70.0,21.0,24.37,WSW,256,33.0,43.0,15,-99.99,,,-99.99,988.820007,,2013-05-20 18:23:00,
2013-05-20 12:32:00,71.0,22.0,24.44,West,266,32.0,42.0,15,-99.99,,,-99.99,999.979980,,2013-05-20 18:32:00,
2013-05-20 12:42:00,72.0,22.0,24.50,West,270,29.0,42.0,15,-99.99,,,-99.99,1012.530029,,2013-05-20 18:42:00,
2013-05-20 12:55:00,72.0,22.0,24.50,West,270,29.0,42.0,15,-99.99,,,-99.99,1012.530029,,2013-05-20 18:55:00,
2013-05-20 13:04:00,72.0,22.0,24.50,West,270,29.0,42.0,15,-99.99,,,-99.99,1012.530029,,2013-05-20 19:04:00,
2013-05-20 13:11:00,73.0,19.0,24.43,West,263,36.0,51.0,12,-99.99,,,-99.99,1025.780029,,2013-05-20 19:11:00,
2013-05-20 13:21:00,73.0,19.0,24.43,West,263,36.0,51.0,12,-99.99,,,-99.99,1025.780029,,2013-05-20 19:21:00,
2013-05-20 13:32:00,74.0,18.0,24.44,WSW,256,37.0,54.0,11,-99.99,,,-99.99,1027.170044,,2013-05-20 19:32:00,
2013-05-20 13:41:00,74.0,18.0,24.47,WSW,258,43.0,60.0,11,-99.99,,,-99.99,1026.469971,,2013-05-20 19:41:00,
2013-05-20 13:52:00,74.0,18.0,24.47,WSW,258,43.0,60.0,11,-99.99,,,-99.99,1026.469971,,2013-05-20 19:52:00,
2013-05-20 14:01:00,74.0,18.0,24.47,WSW,258,43.0,60.0,11,-99.99,,,-99.99,1026.469971,,2013-05-20 20:01:00,
2013-05-20 14:12:00,75.0,19.0,24.49,West,264,36.0,48.0,12,-99.99,,,-99.99,1006.250000,,2013-05-20 20:12:00,
2013-05-20 14:21:00,75.0,19.0,24.49,West,264,36.0,48.0,12,-99.99,,,-99.99,1006.250000,,2013-05-20 20:21:00,
2013-05-20 14:32:00,75.0,20.0,24.50,WSW,258,38.0,55.0,12,-99.99,,,-99.99,992.309998,,2013-05-20 20:32:00,
2013-05-20 14:42:00,76.0,19.0,24.42,West,262,38.0,55.0,11,-99.99,,,-99.99,971.390015,,2013-05-20 20:42:00,
2013-05-20 14:52:00,76.0,19.0,24.42,West,262,38.0,55.0,11,-99.99,,,-99.99,971.390015,,2013-05-20 20:52:00,
2013-05-20 15:01:00,76.0,19.0,24.42,West,262,38.0,55.0,11,-99.99,,,-99.99,971.390015,,2013-05-20 21:01:00,
2013-05-20 15:11:00,77.0,18.0,24.46,WSW,254,42.0,55.0,10,-99.99,,,-99.99,934.429993,,2013-05-20 21:11:00,
2013-05-20 15:21:00,77.0,18.0,24.46,WSW,254,42.0,55.0,10,-99.99,,,-99.99,934.429993,,2013-05-20 21:21:00,
2013-05-20 15:33:00,77.0,18.0,24.46,WSW,251,41.0,56.0,11,-99.99,,,-99.99,914.900024,,2013-05-20 21:33:00,
2013-05-20 15:43:00,76.0,18.0,24.50,WSW,250,47.0,66.0,11,-99.99,,,-99.99,880.030029,,2013-05-20 21:43:00,
2013-05-20 15:53:00,76.0,18.0,24.50,WSW,250,47.0,66.0,11,-99.99,,,-99.99,880.030029,,2013-05-20 21:53:00,
2013-05-20 16:02:00,77.0,18.0,24.50,WSW,258,50.0,62.0,10,-99.99,,,-99.99,850.049988,,2013-05-20 22:02:00,
2013-05-20 16:12:00,77.0,18.0,24.48,WSW,251,50.0,66.0,10,-99.99,,,-99.99,806.809998,,2013-05-20 22:12:00,
2013-05-20 16:23:00,77.0,18.0,24.48,WSW,251,50.0,66.0,10,-99.99,,,-99.99,806.809998,,2013-05-20 22:23:00,
2013-05-20 16:33:00,77.0,16.0,24.42,West,259,51.0,71.0,9,-99.99,,,-99.99,766.369995,,2013-05-20 22:33:00,
2013-05-20 16:42:00,77.0,16.0,24.40,WSW,258,51.0,71.0,9,-99.99,,,-99.99,649.909973,,2013-05-20 22:42:00,
2013-05-20 16:52:00,77.0,16.0,24.40,WSW,258,51.0,71.0,9,-99.99,,,-99.99,649.909973,,2013-05-20 22:52:00,
2013-05-20 17:03:00,78.0,16.0,24.42,West,261,54.0,69.0,9,-99.99,,,-99.99,637.359985,,2013-05-20 23:03:00,
2013-05-20 17:12:00,78.0,15.0,24.24,West,261,55.0,69.0,9,-99.99,,,-99.99,,,2013-05-20 23:12:00,
2013-05-20 17:22:00,78.0,15.0,24.24,West,261,55.0,69.0,9,-99.99,,,-99.99,,,2013-05-20 23:22:00,
2013-05-20 17:32:00,77.0,15.0,24.19,WSW,257,55.0,70.0,9,-99.99,,,-99.99,,,2013-05-20 23:32:00,
2013-05-20 17:42:00,77.0,16.0,24.32,West,265,56.0,70.0,9,-99.99,,,-99.99,118.550003,,2013-05-20 23:42:00,
2013-05-20 17:53:00,77.0,16.0,24.32,West,265,56.0,70.0,9,-99.99,,,-99.99,118.550003,,2013-05-20 23:53:00,
2013-05-20 18:01:00,77.0,16.0,24.26,West,265,53.0,64.0,9,-99.99,,,-99.99,214.080002,,2013-05-21 00:01:00,
2013-05-20 18:11:00,77.0,16.0,24.18,West,260,52.0,73.0,9,-99.99,,,-99.99,251.740005,,2013-05-21 00:11:00,
2013-05-20 18:21:00,77.0,16.0,24.18,West,260,52.0,73.0,9,-99.99,,,-99.99,251.740005,,2013-05-21 00:21:00,
2013-05-20 18:32:00,77.0,16.0,-100.00,West,262,55.0,69.0,9,-99.99,,,-99.99,340.299988,,2013-05-21 00:32:00,
2013-05-20 18:42:00,77.0,16.0,-100.00,West,262,56.0,71.0,10,-99.99,,,-99.99,263.589996,,2013-05-21 00:42:00,
2013-05-20 18:52:00,77.0,16.0,-100.00,West,262,56.0,71.0,10,-99.99,,,-99.99,263.589996,,2013-05-21 00:52:00,
2013-05-20 19:01:00,77.0,16.0,-100.00,West,262,56.0,71.0,10,-99.99,,,-99.99,263.589996,,2013-05-21 01:01:00,
2013-05-20 19:11:00,76.0,16.0,-100.00,West,264,57.0,72.0,10,-99.99,,,-99.99,73.220001,,2013-05-21 01:11:00,
2013-05-20 19:22:00,76.0,16.0,-100.00,West,264,57.0,72.0,10,-99.99,,,-99.99,73.220001,,2013-05-21 01:22:00,
2013-05-20 19:32:00,76.0,16.0,-100.00,West,264,56.0,68.0,10,-99.99,,,-99.99,99.720001,,2013-05-21 01:32:00,
2013-05-20 19:42:00,76.0,16.0,-100.00,West,269,51.0,61.0,10,-99.99,,,-99.99,117.150002,,2013-05-21 01:42:00,
2013-05-20 19:53:00,76.0,16.0,-100.00,West,269,51.0,61.0,10,-99.99,,,-99.99,117.150002,,2013-05-21 01:53:00,
2013-05-20 20:02:00,75.0,16.0,-100.00,West,271,51.0,63.0,10,-99.99,,,-99.99,63.459999,,2013-05-21 02:02:00,
2013-05-20 20:11:00,74.0,17.0,-100.00,West,270,46.0,58.0,11,-99.99,,,-99.99,26.500000,,2013-05-21 02:11:00,
2013-05-20 20:21:00,74.0,17.0,-100.00,West,270,46.0,58.0,11,-99.99,,,-99.99,26.500000,,2013-05-21 02:21:00,
2013-05-20 20:32:00,73.0,18.0,-100.00,West,273,43.0,50.0,12,-99.99,,,-99.99,10.460000,,2013-05-21 02:32:00,
2013-05-20 20:42:00,73.0,18.0,-100.00,West,274,45.0,54.0,12,-99.99,,,-99.99,2.090000,,2013-05-21 02:42:00,
2013-05-20 20:52:00,73.0,18.0,-100.00,West,274,45.0,54.0,12,-99.99,,,-99.99,2.090000,,2013-05-21 02:52:00,
2013-05-20 21:02:00,72.0,18.0,-100.00,West,275,42.0,52.0,12,-99.99,,,-99.99,0.000000,,2013-05-21 03:02:00,
2013-05-20 21:11:00,71.0,18.0,-100.00,West,276,41.0,51.0,12,-99.99,,,-99.99,0.000000,,2013-05-21 03:11:00,
2013-05-20 21:21:00,71.0,18.0,-100.00,West,276,41.0,51.0,12,-99.99,,,-99.99,0.000000,,2013-05-21 03:21:00,
2013-05-20 21:33:00,71.0,19.0,-100.00,West,279,38.0,45.0,13,-99.99,,,-99.99,0.000000,,2013-05-21 03:33:00,
2013-05-20 21:43:00,70.0,19.0,-100.00,West,281,39.0,46.0,14,-99.99,,,-99.99,0.000000,,2013-05-21 03:43:00,
2013-05-20 21:53:00,70.0,19.0,-100.00,West,281,39.0,46.0,14,-99.99,,,-99.99,0.000000,,2013-05-21 03:53:00,
2013-05-20 22:03:00,69.0,18.0,-100.00,West,280,37.0,44.0,14,-99.99,,,-99.99,0.000000,,2013-05-21 04:03:00,
2013-05-20 22:13:00,69.0,17.0,-100.00,West,280,37.0,46.0,13,-99.99,,,-99.99,0.000000,,2013-05-21 04:13:00,
2013-05-20 22:23:00,69.0,17.0,-100.00,West,280,37.0,46.0,13,-99.99,,,-99.99,0.000000,,2013-05-21 04:23:00,
2013-05-20 22:33:00,68.0,17.0,-100.00,West,278,36.0,43.0,13,-99.99,,,-99.99,0.000000,,2013-05-21 04:33:00,
2013-05-20 22:42:00,67.0,16.0,-100.00,West,279,32.0,40.0,14,-99.99,,,-99.99,0.000000,,2013-05-21 04:42:00,
2013-05-20 22:53:00,66.0,16.0,-100.00,WNW,284,29.0,35.0,14,-99.99,,,-99.99,0.000000,,2013-05-21 04:53:00,
2013-05-20 23:02:00,66.0,16.0,-100.00,WNW,284,29.0,35.0,14,-99.99,,,-99.99,0.000000,,2013-05-21 05:02:00,
2013-05-20 23:12:00,65.0,14.0,-100.00,WNW,289,25.0,37.0,13,-99.99,,,-99.99,0.000000,,2013-05-21 05:12:00,
2013-05-20 23:22:00,65.0,14.0,-100.00,WNW,289,25.0,37.0,13,-99.99,,,-99.99,0.000000,,2013-05-21 05:22:00,
2013-05-20 23:32:00,65.0,13.0,-100.00,WNW,295,21.0,32.0,13,-99.99,,,-99.99,0.000000,,2013-05-21 05:32:00,
2013-05-20 23:42:00,64.0,13.0,-100.00,WNW,287,20.0,33.0,13,-99.99,,,-99.99,0.000000,,2013-05-21 05:42:00,
2013-05-20 23:52:00,63.0,13.0,-100.00,WNW,286,18.0,28.0,14,-99.99,,,-99.99,0.000000,,2013-05-21 05:52:00,